sensor_id;sensor_type;location;lat;lon;timestamp;pressure;altitude;pressure_sealevel;temperature;humidity
41967;BME280;27656;53.068;8.818;2024-03-08T00:00:00;102299.72;;;1.00;100.00
41967;BME280;27656;53.068;8.818;2024-03-08T00:02:36;102299.09;;;0.93;100.00
41967;BME280;27656;53.068;8.818;2024-03-08T00:05:04;102301.69;;;0.93;100.00
41967;BME280;27656;53.068;8.818;2024-03-08T00:07:31;102300.91;;;0.91;100.00
41967;BME280;27656;53.068;8.818;2024-03-08T00:09:58;102303.56;;;0.90;100.00
41967;BME280;27656;53.068;8.818;2024-03-08T00:12:24;102303.63;;;0.88;100.00
41967;BME280;27656;53.068;8.818;2024-03-08T00:14:53;102301.69;;;0.93;100.00
41967;BME280;27656;53.068;8.818;2024-03-08T00:17:21;102304.19;;;0.96;100.00
41967;BME280;27656;53.068;8.818;2024-03-08T00:19:51;102298.69;;;1.04;100.00
41967;BME280;27656;53.068;8.818;2024-03-08T00:22:18;102298.84;;;0.99;100.00
41967;BME280;27656;53.068;8.818;2024-03-08T00:24:44;102301.56;;;0.96;100.00
41967;BME280;27656;53.068;8.818;2024-03-08T00:27:11;102307.41;;;1.03;100.00
41967;BME280;27656;53.068;8.818;2024-03-08T00:29:38;102301.34;;;1.02;100.00
41967;BME280;27656;53.068;8.818;2024-03-08T00:32:07;102301.44;;;0.99;100.00
41967;BME280;27656;53.068;8.818;2024-03-08T00:34:37;102302.25;;;1.01;100.00
41967;BME280;27656;53.068;8.818;2024-03-08T00:37:04;102301.88;;;0.89;100.00
41967;BME280;27656;53.068;8.818;2024-03-08T00:39:30;102293.44;;;0.82;100.00
41967;BME280;27656;53.068;8.818;2024-03-08T00:41:57;102291.88;;;0.78;100.00
41967;BME280;27656;53.068;8.818;2024-03-08T00:44:23;102296.28;;;0.76;100.00
41967;BME280;27656;53.068;8.818;2024-03-08T00:46:50;102291.94;;;0.76;100.00
41967;BME280;27656;53.068;8.818;2024-03-08T00:49:20;102289.09;;;0.82;100.00
41967;BME280;27656;53.068;8.818;2024-03-08T00:51:48;102294.19;;;0.86;100.00
41967;BME280;27656;53.068;8.818;2024-03-08T00:54:14;102288.09;;;0.87;100.00
41967;BME280;27656;53.068;8.818;2024-03-08T00:56:41;102283.91;;;0.82;100.00
41967;BME280;27656;53.068;8.818;2024-03-08T00:59:07;102285.94;;;0.74;100.00
41967;BME280;27656;53.068;8.818;2024-03-08T01:01:34;102275.66;;;0.71;100.00
41967;BME280;27656;53.068;8.818;2024-03-08T01:04:00;102281.88;;;0.67;100.00
41967;BME280;27656;53.068;8.818;2024-03-08T01:06:27;102274.97;;;0.66;100.00
41967;BME280;27656;53.068;8.818;2024-03-08T01:08:53;102271.94;;;0.55;100.00
41967;BME280;27656;53.068;8.818;2024-03-08T01:11:20;102269.34;;;0.55;100.00
41967;BME280;27656;53.068;8.818;2024-03-08T01:13:46;102263.19;;;0.57;100.00
41967;BME280;27656;53.068;8.818;2024-03-08T01:16:13;102251.75;;;0.61;100.00
41967;BME280;27656;53.068;8.818;2024-03-08T01:18:43;102250.88;;;0.62;100.00
41967;BME280;27656;53.068;8.818;2024-03-08T01:21:09;102251.66;;;0.65;100.00
41967;BME280;27656;53.068;8.818;2024-03-08T01:23:36;102249.09;;;0.63;100.00
41967;BME280;27656;53.068;8.818;2024-03-08T01:26:03;102235.56;;;0.55;100.00
41967;BME280;27656;53.068;8.818;2024-03-08T01:28:30;102240.06;;;0.50;100.00
41967;BME280;27656;53.068;8.818;2024-03-08T01:30:57;102248.56;;;0.55;100.00
41967;BME280;27656;53.068;8.818;2024-03-08T01:33:26;102235.66;;;0.52;100.00
41967;BME280;27656;53.068;8.818;2024-03-08T01:35:53;102234.78;;;0.53;100.00
41967;BME280;27656;53.068;8.818;2024-03-08T01:38:20;102225.38;;;0.49;100.00
41967;BME280;27656;53.068;8.818;2024-03-08T01:40:49;102222.75;;;0.50;100.00
41967;BME280;27656;53.068;8.818;2024-03-08T01:43:22;102216.78;;;0.47;100.00
41967;BME280;27656;53.068;8.818;2024-03-08T01:45:51;102213.31;;;0.48;100.00
41967;BME280;27656;53.068;8.818;2024-03-08T01:48:18;102208.13;;;0.48;100.00
41967;BME280;27656;53.068;8.818;2024-03-08T01:50:45;102207.38;;;0.44;100.00
41967;BME280;27656;53.068;8.818;2024-03-08T01:53:12;102210.88;;;0.43;100.00
41967;BME280;27656;53.068;8.818;2024-03-08T01:55:42;102210.31;;;0.35;100.00
41967;BME280;27656;53.068;8.818;2024-03-08T01:58:09;102207.78;;;0.33;100.00
41967;BME280;27656;53.068;8.818;2024-03-08T02:00:40;102205.41;;;0.27;100.00
41967;BME280;27656;53.068;8.818;2024-03-08T02:03:07;102203.81;;;0.23;100.00
41967;BME280;27656;53.068;8.818;2024-03-08T02:05:34;102204.72;;;0.22;100.00
41967;BME280;27656;53.068;8.818;2024-03-08T02:08:01;102201.28;;;0.22;100.00
41967;BME280;27656;53.068;8.818;2024-03-08T02:10:29;102202.06;;;0.24;100.00
41967;BME280;27656;53.068;8.818;2024-03-08T02:12:55;102200.50;;;0.19;100.00
41967;BME280;27656;53.068;8.818;2024-03-08T02:15:21;102194.25;;;0.24;100.00
41967;BME280;27656;53.068;8.818;2024-03-08T02:17:48;102194.22;;;0.25;100.00
41967;BME280;27656;53.068;8.818;2024-03-08T02:20:15;102187.44;;;0.21;100.00
41967;BME280;27656;53.068;8.818;2024-03-08T02:22:42;102190.28;;;0.15;100.00
41967;BME280;27656;53.068;8.818;2024-03-08T02:25:08;102189.44;;;0.14;100.00
41967;BME280;27656;53.068;8.818;2024-03-08T02:27:35;102182.66;;;0.10;100.00
41967;BME280;27656;53.068;8.818;2024-03-08T02:30:02;102183.53;;;0.09;100.00
41967;BME280;27656;53.068;8.818;2024-03-08T02:32:29;102184.41;;;0.10;100.00
41967;BME280;27656;53.068;8.818;2024-03-08T02:34:57;102171.34;;;0.11;100.00
41967;BME280;27656;53.068;8.818;2024-03-08T02:37:26;102179.25;;;0.08;100.00
41967;BME280;27656;53.068;8.818;2024-03-08T02:39:55;102168.06;;;0.06;100.00
41967;BME280;27656;53.068;8.818;2024-03-08T02:42:21;102172.88;;;0.17;100.00
41967;BME280;27656;53.068;8.818;2024-03-08T02:44:49;102172.97;;;0.14;100.00
41967;BME280;27656;53.068;8.818;2024-03-08T02:47:15;102165.47;;;0.06;100.00
41967;BME280;27656;53.068;8.818;2024-03-08T02:49:42;102170.84;;;0.02;100.00
41967;BME280;27656;53.068;8.818;2024-03-08T02:52:08;102165.00;;;-0.05;100.00
41967;BME280;27656;53.068;8.818;2024-03-08T02:54:35;102155.22;;;0.03;100.00
41967;BME280;27656;53.068;8.818;2024-03-08T02:57:03;102152.78;;;-0.02;100.00
41967;BME280;27656;53.068;8.818;2024-03-08T02:59:30;102157.94;;;0.00;100.00
41967;BME280;27656;53.068;8.818;2024-03-08T03:01:57;102152.94;;;-0.06;100.00
41967;BME280;27656;53.068;8.818;2024-03-08T03:04:24;102150.97;;;0.01;100.00
41967;BME280;27656;53.068;8.818;2024-03-08T03:06:50;102150.13;;;0.00;100.00
41967;BME280;27656;53.068;8.818;2024-03-08T03:09:17;102153.75;;;-0.04;100.00
41967;BME280;27656;53.068;8.818;2024-03-08T03:11:49;102151.06;;;-0.03;100.00
41967;BME280;27656;53.068;8.818;2024-03-08T03:14:16;102145.63;;;0.05;100.00
41967;BME280;27656;53.068;8.818;2024-03-08T03:16:42;102150.75;;;0.07;100.00
41967;BME280;27656;53.068;8.818;2024-03-08T03:19:10;102143.91;;;0.04;100.00
41967;BME280;27656;53.068;8.818;2024-03-08T03:21:36;102140.63;;;-0.01;100.00
41967;BME280;27656;53.068;8.818;2024-03-08T03:24:04;102145.13;;;-0.05;100.00
41967;BME280;27656;53.068;8.818;2024-03-08T03:26:38;102139.06;;;-0.05;100.00
41967;BME280;27656;53.068;8.818;2024-03-08T03:29:08;102139.22;;;-0.10;100.00
41967;BME280;27656;53.068;8.818;2024-03-08T03:31:35;102141.97;;;-0.14;100.00
41967;BME280;27656;53.068;8.818;2024-03-08T03:34:02;102144.66;;;-0.16;100.00
41967;BME280;27656;53.068;8.818;2024-03-08T03:36:30;102130.03;;;-0.18;100.00
41967;BME280;27656;53.068;8.818;2024-03-08T03:38:57;102146.31;;;-0.15;100.00
41967;BME280;27656;53.068;8.818;2024-03-08T03:41:32;102145.59;;;-0.18;100.00
41967;BME280;27656;53.068;8.818;2024-03-08T03:43:58;102136.97;;;-0.19;100.00
41967;BME280;27656;53.068;8.818;2024-03-08T03:46:25;102136.97;;;-0.19;100.00
41967;BME280;27656;53.068;8.818;2024-03-08T03:48:56;102134.38;;;-0.19;100.00
41967;BME280;27656;53.068;8.818;2024-03-08T03:51:22;102138.78;;;-0.21;100.00
41967;BME280;27656;53.068;8.818;2024-03-08T03:53:49;102136.28;;;-0.24;100.00
41967;BME280;27656;53.068;8.818;2024-03-08T03:56:15;102135.59;;;-0.29;100.00
41967;BME280;27656;53.068;8.818;2024-03-08T03:58:42;102135.47;;;-0.26;100.00
41967;BME280;27656;53.068;8.818;2024-03-08T04:01:08;102141.25;;;-0.18;100.00
41967;BME280;27656;53.068;8.818;2024-03-08T04:03:36;102138.53;;;-0.15;100.00
41967;BME280;27656;53.068;8.818;2024-03-08T04:06:04;102134.19;;;-0.14;100.00
41967;BME280;27656;53.068;8.818;2024-03-08T04:08:31;102137.06;;;-0.22;100.00
41967;BME280;27656;53.068;8.818;2024-03-08T04:10:57;102137.19;;;-0.25;100.00
41967;BME280;27656;53.068;8.818;2024-03-08T04:13:24;102135.66;;;-0.31;100.00
41967;BME280;27656;53.068;8.818;2024-03-08T04:15:51;102136.44;;;-0.29;100.00
41967;BME280;27656;53.068;8.818;2024-03-08T04:18:17;102128.94;;;-0.36;100.00
41967;BME280;27656;53.068;8.818;2024-03-08T04:20:45;102132.47;;;-0.39;100.00
41967;BME280;27656;53.068;8.818;2024-03-08T04:23:12;102127.28;;;-0.39;100.00
41967;BME280;27656;53.068;8.818;2024-03-08T04:25:38;102127.19;;;-0.36;100.00
41967;BME280;27656;53.068;8.818;2024-03-08T04:28:05;102125.50;;;-0.37;100.00
41967;BME280;27656;53.068;8.818;2024-03-08T04:30:31;102125.44;;;-0.35;100.00
41967;BME280;27656;53.068;8.818;2024-03-08T04:32:58;102123.69;;;-0.35;100.00
41967;BME280;27656;53.068;8.818;2024-03-08T04:35:24;102129.22;;;-0.44;100.00
41967;BME280;27656;53.068;8.818;2024-03-08T04:37:51;102124.97;;;-0.47;100.00
41967;BME280;27656;53.068;8.818;2024-03-08T04:40:18;102116.34;;;-0.47;100.00
41967;BME280;27656;53.068;8.818;2024-03-08T04:42:45;102117.22;;;-0.48;100.00
41967;BME280;27656;53.068;8.818;2024-03-08T04:45:11;102115.44;;;-0.46;100.00
41967;BME280;27656;53.068;8.818;2024-03-08T04:47:38;102121.69;;;-0.52;100.00
41967;BME280;27656;53.068;8.818;2024-03-08T04:50:05;102115.44;;;-0.46;100.00
41967;BME280;27656;53.068;8.818;2024-03-08T04:52:32;102115.41;;;-0.45;100.00
41967;BME280;27656;53.068;8.818;2024-03-08T04:54:58;102110.88;;;-0.39;100.00
41967;BME280;27656;53.068;8.818;2024-03-08T04:57:25;102108.50;;;-0.46;100.00
41967;BME280;27656;53.068;8.818;2024-03-08T04:59:52;102110.25;;;-0.46;100.00
41967;BME280;27656;53.068;8.818;2024-03-08T05:02:18;102106.97;;;-0.51;100.00
41967;BME280;27656;53.068;8.818;2024-03-08T05:04:45;102100.06;;;-0.52;100.00
41967;BME280;27656;53.068;8.818;2024-03-08T05:07:11;102095.00;;;-0.55;100.00
41967;BME280;27656;53.068;8.818;2024-03-08T05:09:38;102100.97;;;-0.53;100.00
41967;BME280;27656;53.068;8.818;2024-03-08T05:12:04;102091.56;;;-0.56;100.00
41967;BME280;27656;53.068;8.818;2024-03-08T05:14:31;102095.91;;;-0.56;100.00
41967;BME280;27656;53.068;8.818;2024-03-08T05:16:57;102091.69;;;-0.59;100.00
41967;BME280;27656;53.068;8.818;2024-03-08T05:19:24;102085.53;;;-0.56;100.00
41967;BME280;27656;53.068;8.818;2024-03-08T05:21:50;102087.28;;;-0.57;100.00
41967;BME280;27656;53.068;8.818;2024-03-08T05:24:17;102089.25;;;-0.63;100.00
41967;BME280;27656;53.068;8.818;2024-03-08T05:26:45;102082.25;;;-0.61;100.00
41967;BME280;27656;53.068;8.818;2024-03-08T05:29:13;102080.63;;;-0.64;100.00
41967;BME280;27656;53.068;8.818;2024-03-08T05:31:51;102080.44;;;-0.59;100.00
41967;BME280;27656;53.068;8.818;2024-03-08T05:34:21;102078.81;;;-0.62;100.00
41967;BME280;27656;53.068;8.818;2024-03-08T05:36:48;102073.84;;;-0.68;100.00
41967;BME280;27656;53.068;8.818;2024-03-08T05:39:18;102075.22;;;-0.58;100.00
41967;BME280;27656;53.068;8.818;2024-03-08T05:41:46;102072.09;;;-0.68;100.00
41967;BME280;27656;53.068;8.818;2024-03-08T05:44:13;102072.09;;;-0.68;100.00
41967;BME280;27656;53.068;8.818;2024-03-08T05:46:40;102073.56;;;-0.60;100.00
41967;BME280;27656;53.068;8.818;2024-03-08T05:49:06;102071.81;;;-0.60;100.00
41967;BME280;27656;53.068;8.818;2024-03-08T05:51:37;102075.09;;;-0.55;100.00
41967;BME280;27656;53.068;8.818;2024-03-08T05:54:06;102073.13;;;-0.48;100.00
41967;BME280;27656;53.068;8.818;2024-03-08T05:56:36;102076.69;;;-0.51;100.00
41967;BME280;27656;53.068;8.818;2024-03-08T05:59:03;102077.44;;;-0.47;100.00
41967;BME280;27656;53.068;8.818;2024-03-08T06:01:30;102078.59;;;-0.56;100.00
41967;BME280;27656;53.068;8.818;2024-03-08T06:04:03;102072.50;;;-0.55;100.00
41967;BME280;27656;53.068;8.818;2024-03-08T06:06:30;102074.72;;;-0.44;100.00
41967;BME280;27656;53.068;8.818;2024-03-08T06:08:56;102072.16;;;-0.46;100.00
41967;BME280;27656;53.068;8.818;2024-03-08T06:11:25;102066.25;;;-0.49;100.00
41967;BME280;27656;53.068;8.818;2024-03-08T06:13:56;102066.97;;;-0.46;100.00
41967;BME280;27656;53.068;8.818;2024-03-08T06:16:26;102061.63;;;-0.41;100.00
41967;BME280;27656;53.068;8.818;2024-03-08T06:18:56;102064.81;;;-0.33;100.00
41967;BME280;27656;53.068;8.818;2024-03-08T06:21:24;102068.97;;;-0.29;100.00
41967;BME280;27656;53.068;8.818;2024-03-08T06:23:53;102055.78;;;-0.23;100.00
41967;BME280;27656;53.068;8.818;2024-03-08T06:26:21;102054.63;;;-0.15;100.00
41967;BME280;27656;53.068;8.818;2024-03-08T06:28:48;102052.00;;;-0.14;100.00
41967;BME280;27656;53.068;8.818;2024-03-08T06:31:15;102051.88;;;-0.11;100.00
41967;BME280;27656;53.068;8.818;2024-03-08T06:33:41;102054.47;;;-0.11;100.00
41967;BME280;27656;53.068;8.818;2024-03-08T06:36:09;102048.13;;;-0.04;100.00
41967;BME280;27656;53.068;8.818;2024-03-08T06:38:35;102055.00;;;-0.03;100.00
41967;BME280;27656;53.068;8.818;2024-03-08T06:41:02;102047.00;;;0.04;100.00
41967;BME280;27656;53.068;8.818;2024-03-08T06:43:30;102049.66;;;0.02;100.00
41967;BME280;27656;53.068;8.818;2024-03-08T06:46:01;102047.03;;;0.02;100.00
41967;BME280;27656;53.068;8.818;2024-03-08T06:48:30;102051.97;;;0.10;100.00
41967;BME280;27656;53.068;8.818;2024-03-08T06:50:56;102048.41;;;0.12;100.00
41967;BME280;27656;53.068;8.818;2024-03-08T06:53:23;102046.47;;;0.17;100.00
41967;BME280;27656;53.068;8.818;2024-03-08T06:55:53;102051.00;;;0.34;100.00
41967;BME280;27656;53.068;8.818;2024-03-08T06:58:21;102053.81;;;0.28;100.00
41967;BME280;27656;53.068;8.818;2024-03-08T07:00:47;102051.84;;;0.35;100.00
41967;BME280;27656;53.068;8.818;2024-03-08T07:03:18;102044.97;;;0.34;100.00
41967;BME280;27656;53.068;8.818;2024-03-08T07:05:45;102048.28;;;0.37;100.00
41967;BME280;27656;53.068;8.818;2024-03-08T07:08:11;102050.63;;;0.44;100.00
41967;BME280;27656;53.068;8.818;2024-03-08T07:10:40;102051.34;;;0.47;100.00
41967;BME280;27656;53.068;8.818;2024-03-08T07:13:08;102051.28;;;0.49;100.00
41967;BME280;27656;53.068;8.818;2024-03-08T07:15:34;102050.97;;;0.56;100.00
41967;BME280;27656;53.068;8.818;2024-03-08T07:18:02;102049.63;;;0.68;100.00
41967;BME280;27656;53.068;8.818;2024-03-08T07:20:29;102044.72;;;0.62;100.00
41967;BME280;27656;53.068;8.818;2024-03-08T07:22:56;102048.94;;;0.65;100.00
41967;BME280;27656;53.068;8.818;2024-03-08T07:25:22;102048.00;;;0.66;100.00
41967;BME280;27656;53.068;8.818;2024-03-08T07:27:54;102044.13;;;0.76;100.00
41967;BME280;27656;53.068;8.818;2024-03-08T07:30:22;102046.91;;;0.71;100.00
41967;BME280;27656;53.068;8.818;2024-03-08T07:33:09;102042.13;;;0.82;100.00
41967;BME280;27656;53.068;8.818;2024-03-08T07:35:39;102045.97;;;0.94;100.00
41967;BME280;27656;53.068;8.818;2024-03-08T07:38:07;102036.94;;;1.03;100.00
41967;BME280;27656;53.068;8.818;2024-03-08T07:40:36;102042.06;;;1.04;100.00
41967;BME280;27656;53.068;8.818;2024-03-08T07:43:05;102044.25;;;1.14;100.00
41967;BME280;27656;53.068;8.818;2024-03-08T07:45:31;102048.16;;;1.24;100.00
41967;BME280;27656;53.068;8.818;2024-03-08T07:47:58;102043.59;;;1.29;100.00
41967;BME280;27656;53.068;8.818;2024-03-08T07:50:24;102042.28;;;1.39;100.00
41967;BME280;27656;53.068;8.818;2024-03-08T07:52:51;102047.22;;;1.45;100.00
41967;BME280;27656;53.068;8.818;2024-03-08T07:55:17;102045.13;;;1.54;100.00
41967;BME280;27656;53.068;8.818;2024-03-08T07:57:44;102049.03;;;1.64;100.00
41967;BME280;27656;53.068;8.818;2024-03-08T08:00:11;102047.16;;;1.66;100.00
41967;BME280;27656;53.068;8.818;2024-03-08T08:02:44;102041.97;;;1.66;100.00
41967;BME280;27656;53.068;8.818;2024-03-08T08:05:11;102044.34;;;1.70;100.00
41967;BME280;27656;53.068;8.818;2024-03-08T08:07:38;102042.75;;;1.87;100.00
41967;BME280;27656;53.068;8.818;2024-03-08T08:10:05;102043.88;;;2.00;100.00
41967;BME280;27656;53.068;8.818;2024-03-08T08:12:32;102039.34;;;2.04;100.00
41967;BME280;27656;53.068;8.818;2024-03-08T08:15:01;102034.03;;;2.07;100.00
41967;BME280;27656;53.068;8.818;2024-03-08T08:17:28;102037.31;;;2.10;100.00
41967;BME280;27656;53.068;8.818;2024-03-08T08:19:54;102038.59;;;2.21;100.00
41967;BME280;27656;53.068;8.818;2024-03-08T08:22:22;102033.91;;;2.27;100.00
41967;BME280;27656;53.068;8.818;2024-03-08T08:24:48;102029.09;;;2.37;100.00
41967;BME280;27656;53.068;8.818;2024-03-08T08:27:15;102035.22;;;2.36;100.00
41967;BME280;27656;53.068;8.818;2024-03-08T08:29:41;102035.63;;;2.46;100.00
41967;BME280;27656;53.068;8.818;2024-03-08T08:32:09;102029.59;;;2.45;100.00
41967;BME280;27656;53.068;8.818;2024-03-08T08:34:37;102034.19;;;2.58;100.00
41967;BME280;27656;53.068;8.818;2024-03-08T08:37:03;102029.47;;;2.66;100.00
41967;BME280;27656;53.068;8.818;2024-03-08T08:39:29;102031.97;;;2.85;100.00
41967;BME280;27656;53.068;8.818;2024-03-08T08:41:56;102024.22;;;3.01;100.00
41967;BME280;27656;53.068;8.818;2024-03-08T08:44:23;102022.31;;;3.04;100.00
41967;BME280;27656;53.068;8.818;2024-03-08T08:46:50;102014.84;;;3.14;100.00
41967;BME280;27656;53.068;8.818;2024-03-08T08:49:22;102017.09;;;3.37;100.00
41967;BME280;27656;53.068;8.818;2024-03-08T08:51:50;102015.63;;;3.32;100.00
41967;BME280;27656;53.068;8.818;2024-03-08T08:54:19;102013.66;;;3.53;100.00
41967;BME280;27656;53.068;8.818;2024-03-08T08:56:46;102004.91;;;3.54;100.00
41967;BME280;27656;53.068;8.818;2024-03-08T08:59:14;102011.88;;;3.53;100.00
41967;BME280;27656;53.068;8.818;2024-03-08T09:01:40;102009.72;;;3.61;100.00
41967;BME280;27656;53.068;8.818;2024-03-08T09:04:07;102001.13;;;3.59;100.00
41967;BME280;27656;53.068;8.818;2024-03-08T09:06:34;102002.84;;;3.92;100.00
41967;BME280;27656;53.068;8.818;2024-03-08T09:09:02;101991.63;;;4.06;100.00
41967;BME280;27656;53.068;8.818;2024-03-08T09:11:32;101992.06;;;4.29;100.00
41967;BME280;27656;53.068;8.818;2024-03-08T09:13:59;101991.75;;;4.35;100.00
41967;BME280;27656;53.068;8.818;2024-03-08T09:16:26;101985.03;;;4.45;100.00
41967;BME280;27656;53.068;8.818;2024-03-08T09:18:52;101989.66;;;4.56;100.00
41967;BME280;27656;53.068;8.818;2024-03-08T09:21:19;101985.69;;;4.79;100.00
41967;BME280;27656;53.068;8.818;2024-03-08T09:23:49;101973.34;;;4.81;100.00
41967;BME280;27656;53.068;8.818;2024-03-08T09:26:16;101975.88;;;4.68;100.00
41967;BME280;27656;53.068;8.818;2024-03-08T09:28:53;101972.72;;;4.77;100.00
41967;BME280;27656;53.068;8.818;2024-03-08T09:31:23;101974.03;;;4.99;100.00
41967;BME280;27656;53.068;8.818;2024-03-08T09:33:49;101968.63;;;5.02;100.00
41967;BME280;27656;53.068;8.818;2024-03-08T09:36:17;101955.88;;;4.96;100.00
41967;BME280;27656;53.068;8.818;2024-03-08T09:38:44;101959.66;;;5.20;100.00
41967;BME280;27656;53.068;8.818;2024-03-08T09:41:10;101950.28;;;5.16;100.00
41967;BME280;27656;53.068;8.818;2024-03-08T09:43:37;101953.34;;;5.51;100.00
41967;BME280;27656;53.068;8.818;2024-03-08T09:46:04;101952.69;;;5.48;100.00
41967;BME280;27656;53.068;8.818;2024-03-08T09:48:33;101949.50;;;5.43;100.00
41967;BME280;27656;53.068;8.818;2024-03-08T09:51:00;101940.03;;;5.55;100.00
41967;BME280;27656;53.068;8.818;2024-03-08T09:53:28;101931.69;;;5.62;100.00
41967;BME280;27656;53.068;8.818;2024-03-08T09:55:54;101932.31;;;5.80;100.00
41967;BME280;27656;53.068;8.818;2024-03-08T09:58:21;101927.53;;;5.87;100.00
41967;BME280;27656;53.068;8.818;2024-03-08T10:01:00;101922.50;;;5.69;100.00
41967;BME280;27656;53.068;8.818;2024-03-08T10:03:31;101918.91;;;5.85;100.00
41967;BME280;27656;53.068;8.818;2024-03-08T10:06:01;101918.38;;;6.07;100.00
41967;BME280;27656;53.068;8.818;2024-03-08T10:08:28;101911.91;;;6.12;100.00
41967;BME280;27656;53.068;8.818;2024-03-08T10:10:57;101915.88;;;6.05;100.00
41967;BME280;27656;53.068;8.818;2024-03-08T10:13:25;101906.59;;;6.27;100.00
41967;BME280;27656;53.068;8.818;2024-03-08T10:15:54;101906.94;;;6.48;100.00
41967;BME280;27656;53.068;8.818;2024-03-08T10:18:20;101906.94;;;6.73;100.00
41967;BME280;27656;53.068;8.818;2024-03-08T10:21:04;101900.84;;;6.73;100.00
41967;BME280;27656;53.068;8.818;2024-03-08T10:23:31;101890.75;;;6.67;100.00
41967;BME280;27656;53.068;8.818;2024-03-08T10:26:12;101884.88;;;6.89;100.00
41967;BME280;27656;53.068;8.818;2024-03-08T10:28:44;101885.69;;;7.02;100.00
41967;BME280;27656;53.068;8.818;2024-03-08T10:31:11;101880.63;;;7.12;100.00
41967;BME280;27656;53.068;8.818;2024-03-08T10:33:39;101878.72;;;7.27;100.00
41967;BME280;27656;53.068;8.818;2024-03-08T10:36:08;101866.88;;;7.08;100.00
41967;BME280;27656;53.068;8.818;2024-03-08T10:38:37;101869.59;;;7.19;100.00
41967;BME280;27656;53.068;8.818;2024-03-08T10:41:05;101870.09;;;7.25;100.00
41967;BME280;27656;53.068;8.818;2024-03-08T10:44:04;101855.09;;;7.51;100.00
41967;BME280;27656;53.068;8.818;2024-03-08T10:47:00;101845.56;;;7.61;100.00
41967;BME280;27656;53.068;8.818;2024-03-08T10:49:32;101852.22;;;7.78;100.00
41967;BME280;27656;53.068;8.818;2024-03-08T10:52:06;101845.72;;;7.95;100.00
41967;BME280;27656;53.068;8.818;2024-03-08T10:54:37;101845.25;;;8.01;100.00
41967;BME280;27656;53.068;8.818;2024-03-08T10:57:12;101841.84;;;7.76;100.00
41967;BME280;27656;53.068;8.818;2024-03-08T10:59:39;101832.84;;;7.68;100.00
41967;BME280;27656;53.068;8.818;2024-03-08T11:02:06;101839.75;;;7.93;100.00
41967;BME280;27656;53.068;8.818;2024-03-08T11:04:32;101833.53;;;7.94;100.00
41967;BME280;27656;53.068;8.818;2024-03-08T11:07:00;101827.97;;;8.10;100.00
41967;BME280;27656;53.068;8.818;2024-03-08T11:09:37;101822.50;;;8.35;100.00
41967;BME280;27656;53.068;8.818;2024-03-08T11:12:24;101822.97;;;8.29;100.00
41967;BME280;27656;53.068;8.818;2024-03-08T11:14:53;101816.56;;;8.09;100.00
41967;BME280;27656;53.068;8.818;2024-03-08T11:17:21;101808.72;;;7.74;100.00
41967;BME280;27656;53.068;8.818;2024-03-08T11:19:49;101814.13;;;7.83;100.00
41967;BME280;27656;53.068;8.818;2024-03-08T11:22:26;101809.06;;;8.16;100.00
41967;BME280;27656;53.068;8.818;2024-03-08T11:24:58;101799.41;;;8.27;100.00
41967;BME280;27656;53.068;8.818;2024-03-08T11:27:30;101791.03;;;8.34;100.00
41967;BME280;27656;53.068;8.818;2024-03-08T11:32:45;101801.16;;;8.16;100.00
41967;BME280;27656;53.068;8.818;2024-03-08T11:35:20;101796.50;;;8.08;100.00
41967;BME280;27656;53.068;8.818;2024-03-08T11:37:47;101796.38;;;7.98;100.00
41967;BME280;27656;53.068;8.818;2024-03-08T11:40:15;101794.63;;;8.21;100.00
41967;BME280;27656;53.068;8.818;2024-03-08T11:42:47;101783.59;;;8.27;100.00
41967;BME280;27656;53.068;8.818;2024-03-08T11:45:15;101777.63;;;8.25;100.00
41967;BME280;27656;53.068;8.818;2024-03-08T11:47:44;101769.69;;;8.49;100.00
41967;BME280;27656;53.068;8.818;2024-03-08T11:50:13;101763.53;;;8.38;100.00
41967;BME280;27656;53.068;8.818;2024-03-08T11:52:41;101758.16;;;8.39;100.00
41967;BME280;27656;53.068;8.818;2024-03-08T11:55:09;101759.22;;;8.37;100.00
41967;BME280;27656;53.068;8.818;2024-03-08T11:57:35;101760.69;;;8.41;100.00
41967;BME280;27656;53.068;8.818;2024-03-08T12:00:02;101742.00;;;8.21;100.00
41967;BME280;27656;53.068;8.818;2024-03-08T12:02:33;101740.66;;;8.16;100.00
41967;BME280;27656;53.068;8.818;2024-03-08T12:05:03;101719.03;;;8.35;100.00
41967;BME280;27656;53.068;8.818;2024-03-08T12:07:30;101734.84;;;8.23;100.00
41967;BME280;27656;53.068;8.818;2024-03-08T12:12:46;101725.75;;;8.50;100.00
41967;BME280;27656;53.068;8.818;2024-03-08T12:15:15;101725.50;;;8.08;100.00
41967;BME280;27656;53.068;8.818;2024-03-08T12:17:42;101713.31;;;8.07;100.00
41967;BME280;27656;53.068;8.818;2024-03-08T12:20:15;101716.28;;;8.25;100.00
41967;BME280;27656;53.068;8.818;2024-03-08T12:22:43;101714.72;;;8.22;100.00
41967;BME280;27656;53.068;8.818;2024-03-08T12:25:13;101709.13;;;8.04;100.00
41967;BME280;27656;53.068;8.818;2024-03-08T12:27:41;101701.22;;;8.04;100.00
41967;BME280;27656;53.068;8.818;2024-03-08T12:30:19;101686.75;;;8.33;100.00
41967;BME280;27656;53.068;8.818;2024-03-08T12:35:29;101681.75;;;8.52;100.00
41967;BME280;27656;53.068;8.818;2024-03-08T12:37:58;101681.91;;;8.83;100.00
41967;BME280;27656;53.068;8.818;2024-03-08T12:40:29;101672.19;;;8.95;100.00
41967;BME280;27656;53.068;8.818;2024-03-08T12:42:58;101674.28;;;9.01;100.00
41967;BME280;27656;53.068;8.818;2024-03-08T12:45:25;101659.00;;;8.40;100.00
41967;BME280;27656;53.068;8.818;2024-03-08T12:47:52;101662.00;;;8.24;100.00
41967;BME280;27656;53.068;8.818;2024-03-08T12:50:20;101659.88;;;8.40;100.00
41967;BME280;27656;53.068;8.818;2024-03-08T12:52:47;101651.09;;;8.62;100.00
41967;BME280;27656;53.068;8.818;2024-03-08T12:55:19;101646.88;;;8.71;100.00
41967;BME280;27656;53.068;8.818;2024-03-08T12:57:46;101636.56;;;8.68;100.00
41967;BME280;27656;53.068;8.818;2024-03-08T13:00:14;101632.81;;;8.38;100.00